sensor_id;sensor_type;location;lat;lon;timestamp;temperature;humidity
17891;DHT22;9071;48.220;14.480;2023-06-19T00:02:00;15.10;99.90
17891;DHT22;9071;48.220;14.480;2023-06-19T00:07:04;15.00;99.90
17891;DHT22;9071;48.220;14.480;2023-06-19T00:12:07;15.00;99.90
17891;DHT22;9071;48.220;14.480;2023-06-19T00:17:10;14.90;99.90
17891;DHT22;9071;48.220;14.480;2023-06-19T00:22:12;14.90;99.90
17891;DHT22;9071;48.220;14.480;2023-06-19T00:27:16;14.80;99.90
17891;DHT22;9071;48.220;14.480;2023-06-19T00:32:19;14.70;99.90
17891;DHT22;9071;48.220;14.480;2023-06-19T00:37:21;14.60;99.90
17891;DHT22;9071;48.220;14.480;2023-06-19T00:42:24;14.60;99.90
17891;DHT22;9071;48.220;14.480;2023-06-19T00:47:26;14.50;99.90
17891;DHT22;9071;48.220;14.480;2023-06-19T00:52:28;14.40;99.90
17891;DHT22;9071;48.220;14.480;2023-06-19T00:57:32;14.30;99.90
17891;DHT22;9071;48.220;14.480;2023-06-19T01:02:35;14.30;99.90
17891;DHT22;9071;48.220;14.480;2023-06-19T01:07:43;14.30;99.90
17891;DHT22;9071;48.220;14.480;2023-06-19T01:12:57;14.30;99.90
17891;DHT22;9071;48.220;14.480;2023-06-19T01:18:00;14.30;99.90
17891;DHT22;9071;48.220;14.480;2023-06-19T01:23:09;14.20;99.90
17891;DHT22;9071;48.220;14.480;2023-06-19T01:28:12;14.10;99.90
17891;DHT22;9071;48.220;14.480;2023-06-19T01:33:17;13.90;99.90
17891;DHT22;9071;48.220;14.480;2023-06-19T01:38:24;13.90;99.90
17891;DHT22;9071;48.220;14.480;2023-06-19T01:43:27;13.70;99.90
17891;DHT22;9071;48.220;14.480;2023-06-19T01:48:30;13.70;99.90
17891;DHT22;9071;48.220;14.480;2023-06-19T01:53:34;13.70;99.90
17891;DHT22;9071;48.220;14.480;2023-06-19T01:58:36;13.80;99.90
17891;DHT22;9071;48.220;14.480;2023-06-19T02:03:38;13.70;99.90
17891;DHT22;9071;48.220;14.480;2023-06-19T02:08:41;13.60;99.90
17891;DHT22;9071;48.220;14.480;2023-06-19T02:13:43;13.60;99.90
17891;DHT22;9071;48.220;14.480;2023-06-19T02:18:45;13.50;99.90
17891;DHT22;9071;48.220;14.480;2023-06-19T02:23:49;13.40;99.90
17891;DHT22;9071;48.220;14.480;2023-06-19T02:28:51;13.40;99.90
17891;DHT22;9071;48.220;14.480;2023-06-19T02:33:53;13.30;99.90
17891;DHT22;9071;48.220;14.480;2023-06-19T02:38:56;13.20;99.90
17891;DHT22;9071;48.220;14.480;2023-06-19T02:43:58;13.10;99.90
17891;DHT22;9071;48.220;14.480;2023-06-19T02:49:02;13.00;99.90
17891;DHT22;9071;48.220;14.480;2023-06-19T02:54:05;13.00;99.90
17891;DHT22;9071;48.220;14.480;2023-06-19T02:59:07;13.10;99.90
17891;DHT22;9071;48.220;14.480;2023-06-19T03:04:09;13.10;99.90
17891;DHT22;9071;48.220;14.480;2023-06-19T03:09:13;12.90;99.90
17891;DHT22;9071;48.220;14.480;2023-06-19T03:14:16;12.90;99.90
17891;DHT22;9071;48.220;14.480;2023-06-19T03:19:18;12.80;99.90
17891;DHT22;9071;48.220;14.480;2023-06-19T03:24:21;12.80;99.90
17891;DHT22;9071;48.220;14.480;2023-06-19T03:29:23;12.80;99.90
17891;DHT22;9071;48.220;14.480;2023-06-19T03:34:25;12.80;99.90
17891;DHT22;9071;48.220;14.480;2023-06-19T03:39:29;12.90;99.90
17891;DHT22;9071;48.220;14.480;2023-06-19T03:44:31;13.00;99.90
17891;DHT22;9071;48.220;14.480;2023-06-19T03:49:33;13.10;99.90
17891;DHT22;9071;48.220;14.480;2023-06-19T03:54:36;13.20;99.90
17891;DHT22;9071;48.220;14.480;2023-06-19T03:59:39;13.40;99.90
17891;DHT22;9071;48.220;14.480;2023-06-19T04:04:41;13.70;99.90
17891;DHT22;9071;48.220;14.480;2023-06-19T04:09:44;14.00;99.90
17891;DHT22;9071;48.220;14.480;2023-06-19T04:14:46;14.20;99.90
17891;DHT22;9071;48.220;14.480;2023-06-19T04:19:48;14.30;99.90
17891;DHT22;9071;48.220;14.480;2023-06-19T04:24:52;14.60;99.90
17891;DHT22;9071;48.220;14.480;2023-06-19T04:29:54;14.90;99.90
17891;DHT22;9071;48.220;14.480;2023-06-19T04:34:56;15.10;99.90
17891;DHT22;9071;48.220;14.480;2023-06-19T04:39:59;15.30;99.90
17891;DHT22;9071;48.220;14.480;2023-06-19T04:45:01;15.60;99.90
17891;DHT22;9071;48.220;14.480;2023-06-19T04:50:07;15.80;99.90
17891;DHT22;9071;48.220;14.480;2023-06-19T04:55:10;16.10;99.90
17891;DHT22;9071;48.220;14.480;2023-06-19T05:00:13;16.30;99.90
17891;DHT22;9071;48.220;14.480;2023-06-19T05:05:15;16.70;99.90
17891;DHT22;9071;48.220;14.480;2023-06-19T05:10:19;17.20;99.90
17891;DHT22;9071;48.220;14.480;2023-06-19T05:15:21;18.00;99.90
17891;DHT22;9071;48.220;14.480;2023-06-19T05:20:23;19.80;99.90
17891;DHT22;9071;48.220;14.480;2023-06-19T05:25:27;20.20;99.90
17891;DHT22;9071;48.220;14.480;2023-06-19T05:30:29;21.60;99.90
17891;DHT22;9071;48.220;14.480;2023-06-19T05:35:31;24.50;99.90
17891;DHT22;9071;48.220;14.480;2023-06-19T05:40:35;26.50;99.90
17891;DHT22;9071;48.220;14.480;2023-06-19T05:45:37;27.30;99.90
17891;DHT22;9071;48.220;14.480;2023-06-19T05:50:39;27.20;99.90
17891;DHT22;9071;48.220;14.480;2023-06-19T05:55:43;28.50;99.90
17891;DHT22;9071;48.220;14.480;2023-06-19T06:00:45;28.70;99.90
17891;DHT22;9071;48.220;14.480;2023-06-19T06:05:47;28.90;99.90
17891;DHT22;9071;48.220;14.480;2023-06-19T06:10:51;29.90;99.90
17891;DHT22;9071;48.220;14.480;2023-06-19T06:15:53;30.30;99.90
17891;DHT22;9071;48.220;14.480;2023-06-19T06:20:55;30.00;99.90
17891;DHT22;9071;48.220;14.480;2023-06-19T06:26:01;29.40;99.90
17891;DHT22;9071;48.220;14.480;2023-06-19T06:31:04;30.20;99.90
17891;DHT22;9071;48.220;14.480;2023-06-19T06:36:06;31.20;99.90
17891;DHT22;9071;48.220;14.480;2023-06-19T06:41:09;31.80;99.90
17891;DHT22;9071;48.220;14.480;2023-06-19T06:46:11;32.10;99.90
17891;DHT22;9071;48.220;14.480;2023-06-19T06:51:13;31.80;99.90
17891;DHT22;9071;48.220;14.480;2023-06-19T06:56:17;32.60;99.90
17891;DHT22;9071;48.220;14.480;2023-06-19T07:01:19;30.10;99.90
17891;DHT22;9071;48.220;14.480;2023-06-19T07:06:21;31.50;99.90
17891;DHT22;9071;48.220;14.480;2023-06-19T07:11:24;33.00;99.90
17891;DHT22;9071;48.220;14.480;2023-06-19T07:16:26;31.30;99.90
17891;DHT22;9071;48.220;14.480;2023-06-19T07:21:30;29.40;99.90
17891;DHT22;9071;48.220;14.480;2023-06-19T07:26:33;28.00;99.90
17891;DHT22;9071;48.220;14.480;2023-06-19T07:31:35;27.20;99.90
17891;DHT22;9071;48.220;14.480;2023-06-19T07:36:37;26.30;99.90
17891;DHT22;9071;48.220;14.480;2023-06-19T07:41:41;26.10;99.90
17891;DHT22;9071;48.220;14.480;2023-06-19T07:46:43;25.90;99.90
17891;DHT22;9071;48.220;14.480;2023-06-19T07:51:45;25.30;99.90
17891;DHT22;9071;48.220;14.480;2023-06-19T07:56:48;24.90;99.90
17891;DHT22;9071;48.220;14.480;2023-06-19T08:01:50;24.30;99.90
17891;DHT22;9071;48.220;14.480;2023-06-19T08:06:52;24.00;99.90
17891;DHT22;9071;48.220;14.480;2023-06-19T08:11:56;23.50;99.90
17891;DHT22;9071;48.220;14.480;2023-06-19T08:16:58;23.50;99.90
17891;DHT22;9071;48.220;14.480;2023-06-19T08:22:00;23.60;99.90
17891;DHT22;9071;48.220;14.480;2023-06-19T08:27:05;23.90;99.90
17891;DHT22;9071;48.220;14.480;2023-06-19T08:32:07;24.10;99.90
17891;DHT22;9071;48.220;14.480;2023-06-19T08:37:10;24.30;99.90
17891;DHT22;9071;48.220;14.480;2023-06-19T08:42:13;24.50;99.90
17891;DHT22;9071;48.220;14.480;2023-06-19T08:47:15;24.60;99.90
17891;DHT22;9071;48.220;14.480;2023-06-19T08:52:17;24.80;99.90
17891;DHT22;9071;48.220;14.480;2023-06-19T08:57:21;24.80;99.90
17891;DHT22;9071;48.220;14.480;2023-06-19T09:02:23;24.90;99.90
17891;DHT22;9071;48.220;14.480;2023-06-19T09:07:25;25.40;99.90
17891;DHT22;9071;48.220;14.480;2023-06-19T09:12:28;25.90;99.90
17891;DHT22;9071;48.220;14.480;2023-06-19T09:17:30;26.40;99.90
17891;DHT22;9071;48.220;14.480;2023-06-19T09:22:33;26.90;99.90
17891;DHT22;9071;48.220;14.480;2023-06-19T09:27:36;26.90;99.90
17891;DHT22;9071;48.220;14.480;2023-06-19T09:32:39;26.70;99.90
17891;DHT22;9071;48.220;14.480;2023-06-19T09:37:41;26.90;99.90
17891;DHT22;9071;48.220;14.480;2023-06-19T09:42:48;27.30;99.90
17891;DHT22;9071;48.220;14.480;2023-06-19T09:47:52;27.60;99.90
17891;DHT22;9071;48.220;14.480;2023-06-19T09:52:56;27.90;99.90
17891;DHT22;9071;48.220;14.480;2023-06-19T09:58:00;28.00;99.90
17891;DHT22;9071;48.220;14.480;2023-06-19T10:03:03;28.50;99.90
17891;DHT22;9071;48.220;14.480;2023-06-19T10:08:06;29.10;99.90
17891;DHT22;9071;48.220;14.480;2023-06-19T10:13:15;28.60;99.90
17891;DHT22;9071;48.220;14.480;2023-06-19T10:18:18;28.30;99.90
17891;DHT22;9071;48.220;14.480;2023-06-19T10:23:22;28.50;99.90
17891;DHT22;9071;48.220;14.480;2023-06-19T10:28:28;29.20;99.90
17891;DHT22;9071;48.220;14.480;2023-06-19T10:33:31;29.20;99.90
17891;DHT22;9071;48.220;14.480;2023-06-19T10:38:33;29.50;99.90
17891;DHT22;9071;48.220;14.480;2023-06-19T10:43:37;29.10;99.90
17891;DHT22;9071;48.220;14.480;2023-06-19T10:48:40;29.00;99.90
17891;DHT22;9071;48.220;14.480;2023-06-19T10:53:42;28.90;99.90
17891;DHT22;9071;48.220;14.480;2023-06-19T10:58:46;29.30;99.90
17891;DHT22;9071;48.220;14.480;2023-06-19T11:03:48;29.50;99.90
17891;DHT22;9071;48.220;14.480;2023-06-19T11:08:52;29.70;99.90
17891;DHT22;9071;48.220;14.480;2023-06-19T11:13:55;29.70;99.90
17891;DHT22;9071;48.220;14.480;2023-06-19T11:18:57;29.70;99.90
17891;DHT22;9071;48.220;14.480;2023-06-19T11:24:00;29.50;99.90
17891;DHT22;9071;48.220;14.480;2023-06-19T11:29:13;29.60;99.90
17891;DHT22;9071;48.220;14.480;2023-06-19T11:34:17;29.80;99.90
17891;DHT22;9071;48.220;14.480;2023-06-19T11:39:19;29.20;99.90
17891;DHT22;9071;48.220;14.480;2023-06-19T11:44:22;29.60;99.90
17891;DHT22;9071;48.220;14.480;2023-06-19T11:49:24;29.60;99.90
17891;DHT22;9071;48.220;14.480;2023-06-19T11:54:26;29.50;99.90
17891;DHT22;9071;48.220;14.480;2023-06-19T11:59:30;29.30;99.90
17891;DHT22;9071;48.220;14.480;2023-06-19T12:04:32;29.70;99.90
17891;DHT22;9071;48.220;14.480;2023-06-19T12:09:35;29.70;99.90
17891;DHT22;9071;48.220;14.480;2023-06-19T12:14:39;30.10;99.90
17891;DHT22;9071;48.220;14.480;2023-06-19T12:19:41;30.30;99.90
17891;DHT22;9071;48.220;14.480;2023-06-19T12:24:43;30.60;99.90
17891;DHT22;9071;48.220;14.480;2023-06-19T12:29:46;30.70;99.90
17891;DHT22;9071;48.220;14.480;2023-06-19T12:34:49;31.10;99.90
17891;DHT22;9071;48.220;14.480;2023-06-19T12:39:54;31.20;99.90
17891;DHT22;9071;48.220;14.480;2023-06-19T12:44:58;31.10;99.90
17891;DHT22;9071;48.220;14.480;2023-06-19T12:50:00;31.20;99.90
17891;DHT22;9071;48.220;14.480;2023-06-19T12:55:02;31.30;99.90
17891;DHT22;9071;48.220;14.480;2023-06-19T13:00:09;31.30;99.90
17891;DHT22;9071;48.220;14.480;2023-06-19T13:05:12;31.10;99.90
17891;DHT22;9071;48.220;14.480;2023-06-19T13:10:14;30.70;99.30
17891;DHT22;9071;48.220;14.480;2023-06-19T13:15:18;30.90;99.30
17891;DHT22;9071;48.220;14.480;2023-06-19T13:20:20;31.00;99.90
17891;DHT22;9071;48.220;14.480;2023-06-19T13:25:22;31.10;97.60
17891;DHT22;9071;48.220;14.480;2023-06-19T13:30:26;30.80;99.00
17891;DHT22;9071;48.220;14.480;2023-06-19T13:35:28;31.20;98.80
17891;DHT22;9071;48.220;14.480;2023-06-19T13:40:31;31.40;98.20
17891;DHT22;9071;48.220;14.480;2023-06-19T13:45:34;31.40;96.20
17891;DHT22;9071;48.220;14.480;2023-06-19T13:50:36;31.20;96.70
17891;DHT22;9071;48.220;14.480;2023-06-19T13:55:38;31.10;96.80
17891;DHT22;9071;48.220;14.480;2023-06-19T14:00:42;31.10;97.20
17891;DHT22;9071;48.220;14.480;2023-06-19T14:05:44;31.00;97.30
17891;DHT22;9071;48.220;14.480;2023-06-19T14:10:46;30.70;97.10
17891;DHT22;9071;48.220;14.480;2023-06-19T14:15:49;31.00;98.30
17891;DHT22;9071;48.220;14.480;2023-06-19T14:20:52;31.20;96.70
17891;DHT22;9071;48.220;14.480;2023-06-19T14:25:54;31.10;96.50
17891;DHT22;9071;48.220;14.480;2023-06-19T14:30:57;31.00;96.00
17891;DHT22;9071;48.220;14.480;2023-06-19T14:35:59;30.70;96.20
17891;DHT22;9071;48.220;14.480;2023-06-19T14:41:03;30.50;95.60
17891;DHT22;9071;48.220;14.480;2023-06-19T14:46:07;30.70;95.80
17891;DHT22;9071;48.220;14.480;2023-06-19T14:51:09;30.70;96.00
17891;DHT22;9071;48.220;14.480;2023-06-19T14:56:12;30.70;95.40
17891;DHT22;9071;48.220;14.480;2023-06-19T15:01:15;30.70;95.40
17891;DHT22;9071;48.220;14.480;2023-06-19T15:06:18;30.80;95.10
17891;DHT22;9071;48.220;14.480;2023-06-19T15:11:20;30.60;95.10
17891;DHT22;9071;48.220;14.480;2023-06-19T15:16:24;30.30;95.60
17891;DHT22;9071;48.220;14.480;2023-06-19T15:21:26;30.20;96.00
17891;DHT22;9071;48.220;14.480;2023-06-19T15:26:28;30.00;95.80
17891;DHT22;9071;48.220;14.480;2023-06-19T15:31:32;30.00;95.80
17891;DHT22;9071;48.220;14.480;2023-06-19T15:36:35;29.80;96.10
17891;DHT22;9071;48.220;14.480;2023-06-19T15:41:38;29.90;95.70
17891;DHT22;9071;48.220;14.480;2023-06-19T15:46:42;30.00;95.90
17891;DHT22;9071;48.220;14.480;2023-06-19T15:52:02;30.20;95.20
17891;DHT22;9071;48.220;14.480;2023-06-19T15:57:05;29.80;95.10
17891;DHT22;9071;48.220;14.480;2023-06-19T16:02:09;29.80;95.60
17891;DHT22;9071;48.220;14.480;2023-06-19T16:07:11;29.80;95.70
17891;DHT22;9071;48.220;14.480;2023-06-19T16:12:15;29.90;94.90
17891;DHT22;9071;48.220;14.480;2023-06-19T16:17:19;29.70;94.70
17891;DHT22;9071;48.220;14.480;2023-06-19T16:22:21;29.70;94.50
17891;DHT22;9071;48.220;14.480;2023-06-19T16:27:23;29.70;94.70
17891;DHT22;9071;48.220;14.480;2023-06-19T16:32:26;29.80;94.50
17891;DHT22;9071;48.220;14.480;2023-06-19T16:37:29;29.80;94.80
17891;DHT22;9071;48.220;14.480;2023-06-19T16:42:31;29.70;94.60
17891;DHT22;9071;48.220;14.480;2023-06-19T16:47:34;29.70;94.40
17891;DHT22;9071;48.220;14.480;2023-06-19T16:52:36;29.60;95.10
17891;DHT22;9071;48.220;14.480;2023-06-19T16:57:40;29.50;95.20
17891;DHT22;9071;48.220;14.480;2023-06-19T17:02:43;29.50;94.10
17891;DHT22;9071;48.220;14.480;2023-06-19T17:07:46;29.40;95.00
17891;DHT22;9071;48.220;14.480;2023-06-19T17:12:49;29.30;94.50
17891;DHT22;9071;48.220;14.480;2023-06-19T17:17:53;29.30;94.50
17891;DHT22;9071;48.220;14.480;2023-06-19T17:22:55;29.20;94.70
17891;DHT22;9071;48.220;14.480;2023-06-19T17:27:58;29.20;94.70
17891;DHT22;9071;48.220;14.480;2023-06-19T17:33:01;29.10;95.50
17891;DHT22;9071;48.220;14.480;2023-06-19T17:38:04;29.00;96.20
17891;DHT22;9071;48.220;14.480;2023-06-19T17:43:06;28.90;96.70
17891;DHT22;9071;48.220;14.480;2023-06-19T17:48:09;28.70;96.90
17891;DHT22;9071;48.220;14.480;2023-06-19T17:53:12;28.50;97.20
17891;DHT22;9071;48.220;14.480;2023-06-19T17:58:14;28.40;97.40
17891;DHT22;9071;48.220;14.480;2023-06-19T18:03:17;28.30;98.30
17891;DHT22;9071;48.220;14.480;2023-06-19T18:08:19;28.20;98.70
17891;DHT22;9071;48.220;14.480;2023-06-19T18:13:22;28.10;99.00
17891;DHT22;9071;48.220;14.480;2023-06-19T18:18:26;27.80;99.30
17891;DHT22;9071;48.220;14.480;2023-06-19T18:23:28;27.40;99.90
17891;DHT22;9071;48.220;14.480;2023-06-19T18:28:30;27.20;99.90
17891;DHT22;9071;48.220;14.480;2023-06-19T18:33:33;27.10;99.90
17891;DHT22;9071;48.220;14.480;2023-06-19T18:38:35;26.70;99.90
17891;DHT22;9071;48.220;14.480;2023-06-19T18:43:38;26.50;99.90
17891;DHT22;9071;48.220;14.480;2023-06-19T18:48:41;26.30;99.90
17891;DHT22;9071;48.220;14.480;2023-06-19T18:53:45;26.00;99.90
17891;DHT22;9071;48.220;14.480;2023-06-19T18:58:47;25.60;99.90
17891;DHT22;9071;48.220;14.480;2023-06-19T19:03:50;25.40;99.90
17891;DHT22;9071;48.220;14.480;2023-06-19T19:08:52;25.10;99.90
17891;DHT22;9071;48.220;14.480;2023-06-19T19:13:56;24.80;99.90
17891;DHT22;9071;48.220;14.480;2023-06-19T19:19:00;24.50;99.90
17891;DHT22;9071;48.220;14.480;2023-06-19T19:24:03;24.50;99.90
17891;DHT22;9071;48.220;14.480;2023-06-19T19:29:05;24.50;99.90
17891;DHT22;9071;48.220;14.480;2023-06-19T19:34:08;24.20;99.90
17891;DHT22;9071;48.220;14.480;2023-06-19T19:39:10;23.90;99.90
17891;DHT22;9071;48.220;14.480;2023-06-19T19:44:13;23.60;99.90
17891;DHT22;9071;48.220;14.480;2023-06-19T19:49:16;23.20;99.90
17891;DHT22;9071;48.220;14.480;2023-06-19T19:54:18;22.90;99.90
17891;DHT22;9071;48.220;14.480;2023-06-19T19:59:20;22.70;99.90
17891;DHT22;9071;48.220;14.480;2023-06-19T20:04:23;22.70;99.90
17891;DHT22;9071;48.220;14.480;2023-06-19T20:09:25;22.90;99.90
17891;DHT22;9071;48.220;14.480;2023-06-19T20:14:28;22.90;99.90
17891;DHT22;9071;48.220;14.480;2023-06-19T20:19:32;22.80;99.90
17891;DHT22;9071;48.220;14.480;2023-06-19T20:24:35;22.40;99.90
17891;DHT22;9071;48.220;14.480;2023-06-19T20:29:37;22.10;99.90
17891;DHT22;9071;48.220;14.480;2023-06-19T20:34:43;22.00;99.90
17891;DHT22;9071;48.220;14.480;2023-06-19T20:39:45;21.90;99.90
17891;DHT22;9071;48.220;14.480;2023-06-19T20:44:48;21.70;99.90
17891;DHT22;9071;48.220;14.480;2023-06-19T20:49:52;21.40;99.90
17891;DHT22;9071;48.220;14.480;2023-06-19T20:54:54;21.20;99.90
17891;DHT22;9071;48.220;14.480;2023-06-19T20:59:56;21.00;99.90
17891;DHT22;9071;48.220;14.480;2023-06-19T21:05:00;20.80;99.90
17891;DHT22;9071;48.220;14.480;2023-06-19T21:10:02;20.60;99.90
17891;DHT22;9071;48.220;14.480;2023-06-19T21:15:05;20.50;99.90
17891;DHT22;9071;48.220;14.480;2023-06-19T21:20:10;20.30;99.90
17891;DHT22;9071;48.220;14.480;2023-06-19T21:25:12;20.20;99.90
17891;DHT22;9071;48.220;14.480;2023-06-19T21:30:15;20.10;99.90
17891;DHT22;9071;48.220;14.480;2023-06-19T21:35:18;20.00;99.90
17891;DHT22;9071;48.220;14.480;2023-06-19T21:40:20;19.90;99.90
17891;DHT22;9071;48.220;14.480;2023-06-19T21:45:23;19.80;99.90
17891;DHT22;9071;48.220;14.480;2023-06-19T21:50:27;19.80;99.90
17891;DHT22;9071;48.220;14.480;2023-06-19T21:55:29;19.80;99.90
17891;DHT22;9071;48.220;14.480;2023-06-19T22:00:31;19.70;99.90
17891;DHT22;9071;48.220;14.480;2023-06-19T22:05:35;19.50;99.90
17891;DHT22;9071;48.220;14.480;2023-06-19T22:10:37;19.40;99.90
17891;DHT22;9071;48.220;14.480;2023-06-19T22:15:39;19.30;99.90
17891;DHT22;9071;48.220;14.480;2023-06-19T22:20:42;19.20;99.90
17891;DHT22;9071;48.220;14.480;2023-06-19T22:25:44;19.10;99.90
17891;DHT22;9071;48.220;14.480;2023-06-19T22:30:46;19.00;99.90
17891;DHT22;9071;48.220;14.480;2023-06-19T22:35:50;19.00;99.90
17891;DHT22;9071;48.220;14.480;2023-06-19T22:40:52;19.00;99.90
17891;DHT22;9071;48.220;14.480;2023-06-19T22:45:54;18.90;99.90
17891;DHT22;9071;48.220;14.480;2023-06-19T22:50:57;18.80;99.90
17891;DHT22;9071;48.220;14.480;2023-06-19T22:56:00;18.80;99.90
17891;DHT22;9071;48.220;14.480;2023-06-19T23:01:04;18.80;99.90
17891;DHT22;9071;48.220;14.480;2023-06-19T23:06:10;18.70;99.90
17891;DHT22;9071;48.220;14.480;2023-06-19T23:11:13;18.70;99.90
17891;DHT22;9071;48.220;14.480;2023-06-19T23:16:16;18.60;99.90
17891;DHT22;9071;48.220;14.480;2023-06-19T23:21:20;18.50;99.90
17891;DHT22;9071;48.220;14.480;2023-06-19T23:26:22;18.40;99.90
17891;DHT22;9071;48.220;14.480;2023-06-19T23:31:25;18.30;99.90
17891;DHT22;9071;48.220;14.480;2023-06-19T23:36:28;18.30;99.90
17891;DHT22;9071;48.220;14.480;2023-06-19T23:41:31;18.30;99.90
17891;DHT22;9071;48.220;14.480;2023-06-19T23:46:33;18.40;99.90
17891;DHT22;9071;48.220;14.480;2023-06-19T23:51:36;18.40;99.90
17891;DHT22;9071;48.220;14.480;2023-06-19T23:56:38;18.20;99.90
